sensor_id;sensor_type;location;lat;lon;timestamp;temperature;humidity
84090;SHT35;74178;52.136;5.424;2024-02-14T00:01:19;7.92;93.23
84090;SHT35;74178;52.136;5.424;2024-02-14T00:03:49;7.94;93.19
84090;SHT35;74178;52.136;5.424;2024-02-14T00:06:20;7.96;93.39
84090;SHT35;74178;52.136;5.424;2024-02-14T00:08:50;7.97;93.32
84090;SHT35;74178;52.136;5.424;2024-02-14T00:11:21;7.99;93.31
84090;SHT35;74178;52.136;5.424;2024-02-14T00:14:14;8.00;93.40
84090;SHT35;74178;52.136;5.424;2024-02-14T00:16:46;8.02;93.53
84090;SHT35;74178;52.136;5.424;2024-02-14T00:19:16;8.04;93.25
84090;SHT35;74178;52.136;5.424;2024-02-14T00:21:46;8.04;93.36
84090;SHT35;74178;52.136;5.424;2024-02-14T00:24:18;8.05;93.48
84090;SHT35;74178;52.136;5.424;2024-02-14T00:26:48;8.07;93.50
84090;SHT35;74178;52.136;5.424;2024-02-14T00:29:19;8.09;93.75
84090;SHT35;74178;52.136;5.424;2024-02-14T00:31:50;8.10;93.76
84090;SHT35;74178;52.136;5.424;2024-02-14T00:34:20;8.11;93.80
84090;SHT35;74178;52.136;5.424;2024-02-14T00:36:53;8.13;93.93
84090;SHT35;74178;52.136;5.424;2024-02-14T00:39:23;8.14;93.91
84090;SHT35;74178;52.136;5.424;2024-02-14T00:45:11;8.18;94.19
84090;SHT35;74178;52.136;5.424;2024-02-14T00:47:41;8.21;93.94
84090;SHT35;74178;52.136;5.424;2024-02-14T00:50:12;8.22;94.13
84090;SHT35;74178;52.136;5.424;2024-02-14T00:52:43;8.25;94.14
84090;SHT35;74178;52.136;5.424;2024-02-14T00:55:13;8.27;94.29
84090;SHT35;74178;52.136;5.424;2024-02-14T00:57:44;8.29;94.32
84090;SHT35;74178;52.136;5.424;2024-02-14T01:00:14;8.32;94.48
84090;SHT35;74178;52.136;5.424;2024-02-14T01:02:46;8.33;94.29
84090;SHT35;74178;52.136;5.424;2024-02-14T01:05:17;8.36;94.43
84090;SHT35;74178;52.136;5.424;2024-02-14T01:07:48;8.39;94.59
84090;SHT35;74178;52.136;5.424;2024-02-14T01:10:31;8.42;94.61
84090;SHT35;74178;52.136;5.424;2024-02-14T01:13:08;8.45;94.46
84090;SHT35;74178;52.136;5.424;2024-02-14T01:15:39;8.47;94.47
84090;SHT35;74178;52.136;5.424;2024-02-14T01:18:10;8.50;94.30
84090;SHT35;74178;52.136;5.424;2024-02-14T01:20:41;8.53;94.43
84090;SHT35;74178;52.136;5.424;2024-02-14T01:23:11;8.56;94.27
84090;SHT35;74178;52.136;5.424;2024-02-14T01:25:46;8.58;94.26
84090;SHT35;74178;52.136;5.424;2024-02-14T01:28:18;8.60;94.26
84090;SHT35;74178;52.136;5.424;2024-02-14T01:30:48;8.61;94.38
84090;SHT35;74178;52.136;5.424;2024-02-14T01:33:20;8.63;94.28
84090;SHT35;74178;52.136;5.424;2024-02-14T01:35:53;8.65;94.39
84090;SHT35;74178;52.136;5.424;2024-02-14T01:38:41;8.66;94.27
84090;SHT35;74178;52.136;5.424;2024-02-14T01:41:12;8.68;94.37
84090;SHT35;74178;52.136;5.424;2024-02-14T01:43:42;8.71;94.52
84090;SHT35;74178;52.136;5.424;2024-02-14T01:46:13;8.73;94.45
84090;SHT35;74178;52.136;5.424;2024-02-14T01:48:44;8.77;94.48
84090;SHT35;74178;52.136;5.424;2024-02-14T01:51:19;8.80;94.12
84090;SHT35;74178;52.136;5.424;2024-02-14T01:53:56;8.82;94.44
84090;SHT35;74178;52.136;5.424;2024-02-14T01:56:30;8.85;94.09
84090;SHT35;74178;52.136;5.424;2024-02-14T01:59:00;8.88;94.40
84090;SHT35;74178;52.136;5.424;2024-02-14T02:01:32;8.89;94.23
84090;SHT35;74178;52.136;5.424;2024-02-14T02:04:02;8.90;94.37
84090;SHT35;74178;52.136;5.424;2024-02-14T02:06:44;8.92;94.32
84090;SHT35;74178;52.136;5.424;2024-02-14T02:09:14;8.93;94.59
84090;SHT35;74178;52.136;5.424;2024-02-14T02:11:49;8.96;94.11
84090;SHT35;74178;52.136;5.424;2024-02-14T02:14:19;8.97;94.48
84090;SHT35;74178;52.136;5.424;2024-02-14T02:16:50;8.99;94.60
84090;SHT35;74178;52.136;5.424;2024-02-14T02:19:22;9.01;94.47
84090;SHT35;74178;52.136;5.424;2024-02-14T02:21:53;9.03;94.50
84090;SHT35;74178;52.136;5.424;2024-02-14T02:24:25;9.04;94.50
84090;SHT35;74178;52.136;5.424;2024-02-14T02:26:56;9.06;94.25
84090;SHT35;74178;52.136;5.424;2024-02-14T02:29:28;9.07;94.54
84090;SHT35;74178;52.136;5.424;2024-02-14T02:32:01;9.07;94.77
84090;SHT35;74178;52.136;5.424;2024-02-14T02:37:27;9.10;94.70
84090;SHT35;74178;52.136;5.424;2024-02-14T02:39:59;9.11;94.68
84090;SHT35;74178;52.136;5.424;2024-02-14T02:42:29;9.13;94.69
84090;SHT35;74178;52.136;5.424;2024-02-14T02:44:59;9.15;94.77
84090;SHT35;74178;52.136;5.424;2024-02-14T02:47:32;9.16;94.85
84090;SHT35;74178;52.136;5.424;2024-02-14T02:50:02;9.16;94.85
84090;SHT35;74178;52.136;5.424;2024-02-14T02:52:33;9.18;94.82
84090;SHT35;74178;52.136;5.424;2024-02-14T02:55:03;9.18;94.79
84090;SHT35;74178;52.136;5.424;2024-02-14T02:57:34;9.18;94.95
84090;SHT35;74178;52.136;5.424;2024-02-14T03:00:07;9.19;94.92
84090;SHT35;74178;52.136;5.424;2024-02-14T03:05:31;9.22;94.79
84090;SHT35;74178;52.136;5.424;2024-02-14T03:08:02;9.23;95.03
84090;SHT35;74178;52.136;5.424;2024-02-14T03:10:33;9.25;94.97
84090;SHT35;74178;52.136;5.424;2024-02-14T03:13:04;9.27;94.94
84090;SHT35;74178;52.136;5.424;2024-02-14T03:15:42;9.28;94.93
84090;SHT35;74178;52.136;5.424;2024-02-14T03:18:12;9.29;94.89
84090;SHT35;74178;52.136;5.424;2024-02-14T03:20:43;9.31;94.82
84090;SHT35;74178;52.136;5.424;2024-02-14T03:23:14;9.32;94.86
84090;SHT35;74178;52.136;5.424;2024-02-14T03:25:45;9.33;95.10
84090;SHT35;74178;52.136;5.424;2024-02-14T03:28:15;9.35;94.89
84090;SHT35;74178;52.136;5.424;2024-02-14T03:31:07;9.36;94.81
84090;SHT35;74178;52.136;5.424;2024-02-14T03:33:39;9.38;94.80
84090;SHT35;74178;52.136;5.424;2024-02-14T03:36:10;9.39;95.03
84090;SHT35;74178;52.136;5.424;2024-02-14T03:38:40;9.41;94.87
84090;SHT35;74178;52.136;5.424;2024-02-14T03:41:11;9.43;95.09
84090;SHT35;74178;52.136;5.424;2024-02-14T03:43:42;9.45;95.14
84090;SHT35;74178;52.136;5.424;2024-02-14T03:46:12;9.47;95.05
84090;SHT35;74178;52.136;5.424;2024-02-14T03:48:45;9.50;95.06
84090;SHT35;74178;52.136;5.424;2024-02-14T03:51:18;9.52;95.09
84090;SHT35;74178;52.136;5.424;2024-02-14T03:53:48;9.54;95.14
84090;SHT35;74178;52.136;5.424;2024-02-14T03:56:19;9.54;95.09
84090;SHT35;74178;52.136;5.424;2024-02-14T04:01:54;9.59;95.26
84090;SHT35;74178;52.136;5.424;2024-02-14T04:04:25;9.61;94.80
84090;SHT35;74178;52.136;5.424;2024-02-14T04:06:56;9.64;95.19
84090;SHT35;74178;52.136;5.424;2024-02-14T04:09:32;9.66;94.96
84090;SHT35;74178;52.136;5.424;2024-02-14T04:12:03;9.68;94.85
84090;SHT35;74178;52.136;5.424;2024-02-14T04:14:34;9.70;94.94
84090;SHT35;74178;52.136;5.424;2024-02-14T04:17:06;9.72;95.00
84090;SHT35;74178;52.136;5.424;2024-02-14T04:19:46;9.75;95.01
84090;SHT35;74178;52.136;5.424;2024-02-14T04:22:16;9.77;95.04
84090;SHT35;74178;52.136;5.424;2024-02-14T04:24:46;9.78;95.03
84090;SHT35;74178;52.136;5.424;2024-02-14T04:27:27;9.79;94.74
84090;SHT35;74178;52.136;5.424;2024-02-14T04:29:57;9.81;94.94
84090;SHT35;74178;52.136;5.424;2024-02-14T04:32:28;9.84;94.61
84090;SHT35;74178;52.136;5.424;2024-02-14T04:34:59;9.85;94.69
84090;SHT35;74178;52.136;5.424;2024-02-14T04:37:31;9.87;94.62
84090;SHT35;74178;52.136;5.424;2024-02-14T04:40:02;9.88;94.69
84090;SHT35;74178;52.136;5.424;2024-02-14T04:42:33;9.90;94.76
84090;SHT35;74178;52.136;5.424;2024-02-14T04:45:04;9.92;94.59
84090;SHT35;74178;52.136;5.424;2024-02-14T04:47:36;9.93;94.24
84090;SHT35;74178;52.136;5.424;2024-02-14T04:50:07;9.94;94.26
84090;SHT35;74178;52.136;5.424;2024-02-14T04:52:40;9.96;94.48
84090;SHT35;74178;52.136;5.424;2024-02-14T04:58:05;9.98;94.24
84090;SHT35;74178;52.136;5.424;2024-02-14T05:00:35;10.00;94.41
84090;SHT35;74178;52.136;5.424;2024-02-14T05:03:08;10.01;94.46
84090;SHT35;74178;52.136;5.424;2024-02-14T05:05:40;10.02;94.47
84090;SHT35;74178;52.136;5.424;2024-02-14T05:08:11;10.04;94.28
84090;SHT35;74178;52.136;5.424;2024-02-14T05:10:41;10.05;93.97
84090;SHT35;74178;52.136;5.424;2024-02-14T05:13:12;10.07;94.18
84090;SHT35;74178;52.136;5.424;2024-02-14T05:15:44;10.08;94.18
84090;SHT35;74178;52.136;5.424;2024-02-14T05:18:15;10.10;94.10
84090;SHT35;74178;52.136;5.424;2024-02-14T05:20:46;10.13;94.14
84090;SHT35;74178;52.136;5.424;2024-02-14T05:23:40;10.14;94.18
84090;SHT35;74178;52.136;5.424;2024-02-14T05:26:17;10.16;93.70
84090;SHT35;74178;52.136;5.424;2024-02-14T05:28:47;10.18;93.93
84090;SHT35;74178;52.136;5.424;2024-02-14T05:31:18;10.19;93.66
84090;SHT35;74178;52.136;5.424;2024-02-14T05:33:51;10.19;93.82
84090;SHT35;74178;52.136;5.424;2024-02-14T05:36:22;10.19;93.67
84090;SHT35;74178;52.136;5.424;2024-02-14T05:38:54;10.21;93.70
84090;SHT35;74178;52.136;5.424;2024-02-14T05:41:26;10.21;93.83
84090;SHT35;74178;52.136;5.424;2024-02-14T05:43:57;10.23;93.48
84090;SHT35;74178;52.136;5.424;2024-02-14T05:46:28;10.23;93.47
84090;SHT35;74178;52.136;5.424;2024-02-14T05:48:58;10.25;93.36
84090;SHT35;74178;52.136;5.424;2024-02-14T05:54:26;10.25;93.57
84090;SHT35;74178;52.136;5.424;2024-02-14T05:56:57;10.25;93.56
84090;SHT35;74178;52.136;5.424;2024-02-14T05:59:29;10.25;93.74
84090;SHT35;74178;52.136;5.424;2024-02-14T06:02:01;10.25;93.71
84090;SHT35;74178;52.136;5.424;2024-02-14T06:04:34;10.25;93.72
84090;SHT35;74178;52.136;5.424;2024-02-14T06:07:05;10.27;93.66
84090;SHT35;74178;52.136;5.424;2024-02-14T06:09:39;10.27;93.80
84090;SHT35;74178;52.136;5.424;2024-02-14T06:12:09;10.28;93.61
84090;SHT35;74178;52.136;5.424;2024-02-14T06:14:40;10.29;93.69
84090;SHT35;74178;52.136;5.424;2024-02-14T06:17:11;10.30;93.56
84090;SHT35;74178;52.136;5.424;2024-02-14T06:22:37;10.33;93.51
84090;SHT35;74178;52.136;5.424;2024-02-14T06:25:18;10.34;93.42
84090;SHT35;74178;52.136;5.424;2024-02-14T06:27:48;10.35;93.36
84090;SHT35;74178;52.136;5.424;2024-02-14T06:30:19;10.35;93.59
84090;SHT35;74178;52.136;5.424;2024-02-14T06:32:49;10.35;93.50
84090;SHT35;74178;52.136;5.424;2024-02-14T06:35:20;10.36;93.56
84090;SHT35;74178;52.136;5.424;2024-02-14T06:37:52;10.35;93.58
84090;SHT35;74178;52.136;5.424;2024-02-14T06:40:34;10.37;93.52
84090;SHT35;74178;52.136;5.424;2024-02-14T06:43:32;10.38;93.63
84090;SHT35;74178;52.136;5.424;2024-02-14T06:46:03;10.37;93.54
84090;SHT35;74178;52.136;5.424;2024-02-14T06:48:34;10.36;93.67
84090;SHT35;74178;52.136;5.424;2024-02-14T06:51:07;10.35;93.82
84090;SHT35;74178;52.136;5.424;2024-02-14T06:53:37;10.35;93.89
84090;SHT35;74178;52.136;5.424;2024-02-14T06:56:07;10.35;93.42
84090;SHT35;74178;52.136;5.424;2024-02-14T06:58:38;10.35;93.78
84090;SHT35;74178;52.136;5.424;2024-02-14T07:01:08;10.35;93.72
84090;SHT35;74178;52.136;5.424;2024-02-14T07:03:42;10.35;93.90
84090;SHT35;74178;52.136;5.424;2024-02-14T07:06:14;10.35;94.06
84090;SHT35;74178;52.136;5.424;2024-02-14T07:11:41;10.39;94.09
84090;SHT35;74178;52.136;5.424;2024-02-14T07:14:12;10.40;94.02
84090;SHT35;74178;52.136;5.424;2024-02-14T07:16:42;10.42;93.94
84090;SHT35;74178;52.136;5.424;2024-02-14T07:19:13;10.45;93.94
84090;SHT35;74178;52.136;5.424;2024-02-14T07:21:43;10.48;93.76
84090;SHT35;74178;52.136;5.424;2024-02-14T07:24:14;10.50;93.73
84090;SHT35;74178;52.136;5.424;2024-02-14T07:26:44;10.53;93.67
84090;SHT35;74178;52.136;5.424;2024-02-14T07:29:15;10.56;93.31
84090;SHT35;74178;52.136;5.424;2024-02-14T07:31:46;10.56;93.25
84090;SHT35;74178;52.136;5.424;2024-02-14T07:34:17;10.57;93.57
84090;SHT35;74178;52.136;5.424;2024-02-14T07:36:49;10.58;93.47
84090;SHT35;74178;52.136;5.424;2024-02-14T07:39:39;10.59;93.52
84090;SHT35;74178;52.136;5.424;2024-02-14T07:42:11;10.59;93.66
84090;SHT35;74178;52.136;5.424;2024-02-14T07:44:47;10.60;93.40
84090;SHT35;74178;52.136;5.424;2024-02-14T07:47:18;10.61;93.51
84090;SHT35;74178;52.136;5.424;2024-02-14T07:49:48;10.64;93.61
84090;SHT35;74178;52.136;5.424;2024-02-14T07:52:19;10.65;93.44
84090;SHT35;74178;52.136;5.424;2024-02-14T07:54:55;10.66;93.46
84090;SHT35;74178;52.136;5.424;2024-02-14T07:57:26;10.67;93.50
84090;SHT35;74178;52.136;5.424;2024-02-14T07:59:57;10.66;93.53
84090;SHT35;74178;52.136;5.424;2024-02-14T08:02:27;10.67;93.39
84090;SHT35;74178;52.136;5.424;2024-02-14T08:04:59;10.69;93.55
84090;SHT35;74178;52.136;5.424;2024-02-14T08:08:01;10.71;93.57
84090;SHT35;74178;52.136;5.424;2024-02-14T08:10:32;10.73;93.32
84090;SHT35;74178;52.136;5.424;2024-02-14T08:13:02;10.74;93.04
84090;SHT35;74178;52.136;5.424;2024-02-14T08:15:33;10.76;93.34
84090;SHT35;74178;52.136;5.424;2024-02-14T08:18:05;10.77;93.41
84090;SHT35;74178;52.136;5.424;2024-02-14T08:20:38;10.78;93.22
84090;SHT35;74178;52.136;5.424;2024-02-14T08:23:10;10.79;93.17
84090;SHT35;74178;52.136;5.424;2024-02-14T08:25:41;10.80;93.40
84090;SHT35;74178;52.136;5.424;2024-02-14T08:28:12;10.82;93.25
84090;SHT35;74178;52.136;5.424;2024-02-14T08:30:46;10.85;93.45
84090;SHT35;74178;52.136;5.424;2024-02-14T08:33:44;10.87;93.18
84090;SHT35;74178;52.136;5.424;2024-02-14T08:36:18;10.89;93.35
84090;SHT35;74178;52.136;5.424;2024-02-14T08:38:49;10.91;93.18
84090;SHT35;74178;52.136;5.424;2024-02-14T08:44:17;10.93;93.21
84090;SHT35;74178;52.136;5.424;2024-02-14T08:46:48;10.94;93.08
84090;SHT35;74178;52.136;5.424;2024-02-14T08:49:19;10.96;93.20
84090;SHT35;74178;52.136;5.424;2024-02-14T08:51:50;10.97;93.37
84090;SHT35;74178;52.136;5.424;2024-02-14T08:57:14;11.01;93.40
84090;SHT35;74178;52.136;5.424;2024-02-14T08:59:45;11.04;93.21
84090;SHT35;74178;52.136;5.424;2024-02-14T09:02:17;11.09;93.51
84090;SHT35;74178;52.136;5.424;2024-02-14T09:05:15;11.13;93.05
84090;SHT35;74178;52.136;5.424;2024-02-14T09:08:08;11.18;92.88
84090;SHT35;74178;52.136;5.424;2024-02-14T09:10:39;11.20;92.74
84090;SHT35;74178;52.136;5.424;2024-02-14T09:13:10;11.21;92.26
84090;SHT35;74178;52.136;5.424;2024-02-14T09:18:25;11.25;92.59
84090;SHT35;74178;52.136;5.424;2024-02-14T09:20:57;11.26;92.58
84090;SHT35;74178;52.136;5.424;2024-02-14T09:23:31;11.28;92.21
84090;SHT35;74178;52.136;5.424;2024-02-14T09:26:07;11.29;92.40
84090;SHT35;74178;52.136;5.424;2024-02-14T09:28:40;11.29;92.28
84090;SHT35;74178;52.136;5.424;2024-02-14T09:31:11;11.30;92.21
84090;SHT35;74178;52.136;5.424;2024-02-14T09:33:41;11.31;92.15
84090;SHT35;74178;52.136;5.424;2024-02-14T09:36:12;11.31;92.39
84090;SHT35;74178;52.136;5.424;2024-02-14T09:38:44;11.33;92.53
84090;SHT35;74178;52.136;5.424;2024-02-14T09:41:40;11.35;92.49
84090;SHT35;74178;52.136;5.424;2024-02-14T09:44:12;11.39;92.65
84090;SHT35;74178;52.136;5.424;2024-02-14T09:46:48;11.41;92.12
84090;SHT35;74178;52.136;5.424;2024-02-14T09:49:19;11.43;92.34
84090;SHT35;74178;52.136;5.424;2024-02-14T09:51:51;11.43;91.84
84090;SHT35;74178;52.136;5.424;2024-02-14T09:54:24;11.44;91.65
84090;SHT35;74178;52.136;5.424;2024-02-14T09:56:55;11.43;91.62
84090;SHT35;74178;52.136;5.424;2024-02-14T09:59:27;11.41;91.47
84090;SHT35;74178;52.136;5.424;2024-02-14T10:01:58;11.40;91.89
84090;SHT35;74178;52.136;5.424;2024-02-14T10:04:28;11.39;92.10
84090;SHT35;74178;52.136;5.424;2024-02-14T10:06:59;11.39;92.29
84090;SHT35;74178;52.136;5.424;2024-02-14T10:09:31;11.40;92.21
84090;SHT35;74178;52.136;5.424;2024-02-14T10:12:11;11.41;92.39
84090;SHT35;74178;52.136;5.424;2024-02-14T10:14:42;11.44;92.04
84090;SHT35;74178;52.136;5.424;2024-02-14T10:17:19;11.46;91.83
84090;SHT35;74178;52.136;5.424;2024-02-14T10:20:01;11.48;92.32
84090;SHT35;74178;52.136;5.424;2024-02-14T10:22:37;11.50;92.08
84090;SHT35;74178;52.136;5.424;2024-02-14T10:25:07;11.51;92.22
84090;SHT35;74178;52.136;5.424;2024-02-14T10:27:39;11.53;92.11
84090;SHT35;74178;52.136;5.424;2024-02-14T10:30:10;11.54;92.35
84090;SHT35;74178;52.136;5.424;2024-02-14T10:32:40;11.58;92.42
84090;SHT35;74178;52.136;5.424;2024-02-14T10:35:54;11.61;91.76
84090;SHT35;74178;52.136;5.424;2024-02-14T10:38:39;11.63;92.11
84090;SHT35;74178;52.136;5.424;2024-02-14T10:41:18;11.65;91.95
84090;SHT35;74178;52.136;5.424;2024-02-14T10:43:49;11.67;92.28
84090;SHT35;74178;52.136;5.424;2024-02-14T10:46:22;11.68;92.04
84090;SHT35;74178;52.136;5.424;2024-02-14T10:49:02;11.71;92.03
84090;SHT35;74178;52.136;5.424;2024-02-14T10:51:35;11.73;91.98
84090;SHT35;74178;52.136;5.424;2024-02-14T10:54:14;11.75;91.99
84090;SHT35;74178;52.136;5.424;2024-02-14T10:56:50;11.77;92.41
84090;SHT35;74178;52.136;5.424;2024-02-14T10:59:25;11.79;92.50
84090;SHT35;74178;52.136;5.424;2024-02-14T11:01:56;11.82;92.35
84090;SHT35;74178;52.136;5.424;2024-02-14T11:04:28;11.86;92.61
84090;SHT35;74178;52.136;5.424;2024-02-14T11:06:59;11.90;92.16
84090;SHT35;74178;52.136;5.424;2024-02-14T11:09:36;11.93;92.27
84090;SHT35;74178;52.136;5.424;2024-02-14T11:12:08;11.97;91.93
84090;SHT35;74178;52.136;5.424;2024-02-14T11:14:42;11.99;91.83
84090;SHT35;74178;52.136;5.424;2024-02-14T11:17:15;12.00;91.74
84090;SHT35;74178;52.136;5.424;2024-02-14T11:19:49;12.03;92.03
84090;SHT35;74178;52.136;5.424;2024-02-14T11:22:21;12.06;92.09
84090;SHT35;74178;52.136;5.424;2024-02-14T11:24:52;12.11;92.06
84090;SHT35;74178;52.136;5.424;2024-02-14T11:27:24;12.14;91.48
84090;SHT35;74178;52.136;5.424;2024-02-14T11:30:05;12.16;91.26
84090;SHT35;74178;52.136;5.424;2024-02-14T11:32:37;12.16;90.75
84090;SHT35;74178;52.136;5.424;2024-02-14T11:35:12;12.17;90.94
84090;SHT35;74178;52.136;5.424;2024-02-14T11:37:43;12.15;90.78
84090;SHT35;74178;52.136;5.424;2024-02-14T11:40:13;12.14;90.79
84090;SHT35;74178;52.136;5.424;2024-02-14T11:42:44;12.12;91.09
84090;SHT35;74178;52.136;5.424;2024-02-14T11:45:17;12.09;90.88
84090;SHT35;74178;52.136;5.424;2024-02-14T11:47:47;12.09;91.37
84090;SHT35;74178;52.136;5.424;2024-02-14T11:50:31;12.06;91.02
84090;SHT35;74178;52.136;5.424;2024-02-14T11:53:13;12.03;91.39
84090;SHT35;74178;52.136;5.424;2024-02-14T11:55:46;12.02;91.40
84090;SHT35;74178;52.136;5.424;2024-02-14T11:58:18;12.01;91.77
84090;SHT35;74178;52.136;5.424;2024-02-14T12:00:49;12.00;91.90
84090;SHT35;74178;52.136;5.424;2024-02-14T12:03:22;12.00;92.36
84090;SHT35;74178;52.136;5.424;2024-02-14T12:05:56;12.00;92.53
84090;SHT35;74178;52.136;5.424;2024-02-14T12:08:26;12.02;92.53
84090;SHT35;74178;52.136;5.424;2024-02-14T12:10:57;12.04;92.71
84090;SHT35;74178;52.136;5.424;2024-02-14T12:13:28;12.07;92.28
84090;SHT35;74178;52.136;5.424;2024-02-14T12:16:07;12.09;92.62
84090;SHT35;74178;52.136;5.424;2024-02-14T12:18:38;12.11;92.53
84090;SHT35;74178;52.136;5.424;2024-02-14T12:21:10;12.15;92.95
84090;SHT35;74178;52.136;5.424;2024-02-14T12:23:42;12.18;92.36
84090;SHT35;74178;52.136;5.424;2024-02-14T12:26:12;12.20;92.35
84090;SHT35;74178;52.136;5.424;2024-02-14T12:28:46;12.22;92.01
84090;SHT35;74178;52.136;5.424;2024-02-14T12:31:22;12.23;91.86
84090;SHT35;74178;52.136;5.424;2024-02-14T12:33:54;12.24;91.75
84090;SHT35;74178;52.136;5.424;2024-02-14T12:36:29;12.25;91.80
84090;SHT35;74178;52.136;5.424;2024-02-14T12:39:00;12.23;91.23
84090;SHT35;74178;52.136;5.424;2024-02-14T12:41:34;12.21;91.73
84090;SHT35;74178;52.136;5.424;2024-02-14T12:44:06;12.18;91.88
84090;SHT35;74178;52.136;5.424;2024-02-14T12:49:30;12.14;92.42
84090;SHT35;74178;52.136;5.424;2024-02-14T12:52:01;12.13;92.47
84090;SHT35;74178;52.136;5.424;2024-02-14T12:54:33;12.14;92.39
84090;SHT35;74178;52.136;5.424;2024-02-14T12:57:05;12.13;92.35
84090;SHT35;74178;52.136;5.424;2024-02-14T12:59:45;12.11;92.40
84090;SHT35;74178;52.136;5.424;2024-02-14T13:02:16;12.11;92.68
84090;SHT35;74178;52.136;5.424;2024-02-14T13:04:46;12.11;92.83
84090;SHT35;74178;52.136;5.424;2024-02-14T13:07:17;12.10;92.37
84090;SHT35;74178;52.136;5.424;2024-02-14T13:09:48;12.12;93.07
84090;SHT35;74178;52.136;5.424;2024-02-14T13:12:19;12.14;92.70
84090;SHT35;74178;52.136;5.424;2024-02-14T13:14:54;12.15;92.54
84090;SHT35;74178;52.136;5.424;2024-02-14T13:17:25;12.15;92.62
84090;SHT35;74178;52.136;5.424;2024-02-14T13:19:56;12.15;92.53
84090;SHT35;74178;52.136;5.424;2024-02-14T13:22:29;12.14;92.66
84090;SHT35;74178;52.136;5.424;2024-02-14T13:25:02;12.15;93.11
84090;SHT35;74178;52.136;5.424;2024-02-14T13:27:35;12.18;92.98
84090;SHT35;74178;52.136;5.424;2024-02-14T13:30:08;12.21;92.93
84090;SHT35;74178;52.136;5.424;2024-02-14T13:32:39;12.22;93.06
84090;SHT35;74178;52.136;5.424;2024-02-14T13:35:10;12.23;93.05
84090;SHT35;74178;52.136;5.424;2024-02-14T13:37:42;12.25;93.00
84090;SHT35;74178;52.136;5.424;2024-02-14T13:40:14;12.26;92.41
84090;SHT35;74178;52.136;5.424;2024-02-14T13:43:07;12.27;92.78
84090;SHT35;74178;52.136;5.424;2024-02-14T13:45:45;12.27;92.60
84090;SHT35;74178;52.136;5.424;2024-02-14T13:48:17;12.28;93.06
84090;SHT35;74178;52.136;5.424;2024-02-14T13:50:48;12.28;92.62
84090;SHT35;74178;52.136;5.424;2024-02-14T13:53:19;12.28;92.76
84090;SHT35;74178;52.136;5.424;2024-02-14T13:55:54;12.29;92.98
84090;SHT35;74178;52.136;5.424;2024-02-14T13:58:26;12.29;92.87
84090;SHT35;74178;52.136;5.424;2024-02-14T14:00:57;12.29;92.85
84090;SHT35;74178;52.136;5.424;2024-02-14T14:03:28;12.32;93.15
84090;SHT35;74178;52.136;5.424;2024-02-14T14:06:03;12.34;93.28
84090;SHT35;74178;52.136;5.424;2024-02-14T14:08:35;12.37;92.81
84090;SHT35;74178;52.136;5.424;2024-02-14T14:11:12;12.38;92.79
84090;SHT35;74178;52.136;5.424;2024-02-14T14:13:42;12.39;93.03
84090;SHT35;74178;52.136;5.424;2024-02-14T14:16:13;12.40;93.19
84090;SHT35;74178;52.136;5.424;2024-02-14T14:18:43;12.42;92.79
84090;SHT35;74178;52.136;5.424;2024-02-14T14:21:14;12.43;92.81
84090;SHT35;74178;52.136;5.424;2024-02-14T14:23:44;12.43;92.67
84090;SHT35;74178;52.136;5.424;2024-02-14T14:26:15;12.43;92.73
84090;SHT35;74178;52.136;5.424;2024-02-14T14:28:51;12.43;92.75
84090;SHT35;74178;52.136;5.424;2024-02-14T14:31:23;12.43;92.81
84090;SHT35;74178;52.136;5.424;2024-02-14T14:33:58;12.42;92.70
84090;SHT35;74178;52.136;5.424;2024-02-14T14:36:28;12.43;93.28
84090;SHT35;74178;52.136;5.424;2024-02-14T14:39:19;12.43;92.92
84090;SHT35;74178;52.136;5.424;2024-02-14T14:41:51;12.44;93.13
84090;SHT35;74178;52.136;5.424;2024-02-14T14:44:25;12.45;93.06
84090;SHT35;74178;52.136;5.424;2024-02-14T14:46:56;12.46;92.95
84090;SHT35;74178;52.136;5.424;2024-02-14T14:49:26;12.47;93.06
84090;SHT35;74178;52.136;5.424;2024-02-14T14:51:56;12.48;93.09
84090;SHT35;74178;52.136;5.424;2024-02-14T14:54:27;12.48;93.27
84090;SHT35;74178;52.136;5.424;2024-02-14T14:56:58;12.50;93.03
84090;SHT35;74178;52.136;5.424;2024-02-14T14:59:33;12.49;93.24
84090;SHT35;74178;52.136;5.424;2024-02-14T15:02:04;12.51;93.17
84090;SHT35;74178;52.136;5.424;2024-02-14T15:04:35;12.53;93.25
84090;SHT35;74178;52.136;5.424;2024-02-14T15:10:01;12.56;93.07
84090;SHT35;74178;52.136;5.424;2024-02-14T15:12:32;12.55;92.80
84090;SHT35;74178;52.136;5.424;2024-02-14T15:15:05;12.54;92.91
84090;SHT35;74178;52.136;5.424;2024-02-14T15:17:36;12.54;93.11
84090;SHT35;74178;52.136;5.424;2024-02-14T15:20:07;12.54;93.06
84090;SHT35;74178;52.136;5.424;2024-02-14T15:22:37;12.56;93.30
84090;SHT35;74178;52.136;5.424;2024-02-14T15:25:10;12.57;92.97
84090;SHT35;74178;52.136;5.424;2024-02-14T15:27:42;12.59;93.07
84090;SHT35;74178;52.136;5.424;2024-02-14T15:30:24;12.60;93.03
84090;SHT35;74178;52.136;5.424;2024-02-14T15:33:14;12.61;93.14
84090;SHT35;74178;52.136;5.424;2024-02-14T15:35:55;12.61;92.69
84090;SHT35;74178;52.136;5.424;2024-02-14T15:38:26;12.60;92.56
84090;SHT35;74178;52.136;5.424;2024-02-14T15:40:58;12.60;93.10
84090;SHT35;74178;52.136;5.424;2024-02-14T15:43:32;12.61;93.08
84090;SHT35;74178;52.136;5.424;2024-02-14T15:46:03;12.61;92.96
84090;SHT35;74178;52.136;5.424;2024-02-14T15:48:33;12.63;92.82
84090;SHT35;74178;52.136;5.424;2024-02-14T15:51:04;12.64;92.82
84090;SHT35;74178;52.136;5.424;2024-02-14T15:53:34;12.64;92.55
84090;SHT35;74178;52.136;5.424;2024-02-14T15:56:08;12.64;92.69
84090;SHT35;74178;52.136;5.424;2024-02-14T15:58:46;12.64;92.78
84090;SHT35;74178;52.136;5.424;2024-02-14T16:01:16;12.64;92.64
84090;SHT35;74178;52.136;5.424;2024-02-14T16:03:47;12.64;92.88
84090;SHT35;74178;52.136;5.424;2024-02-14T16:06:18;12.65;92.69
84090;SHT35;74178;52.136;5.424;2024-02-14T16:08:52;12.65;92.77
84090;SHT35;74178;52.136;5.424;2024-02-14T16:11:23;12.66;92.99
84090;SHT35;74178;52.136;5.424;2024-02-14T16:13:55;12.67;92.65
84090;SHT35;74178;52.136;5.424;2024-02-14T16:16:28;12.66;92.76
84090;SHT35;74178;52.136;5.424;2024-02-14T16:19:00;12.66;92.51
84090;SHT35;74178;52.136;5.424;2024-02-14T16:21:31;12.65;92.76
84090;SHT35;74178;52.136;5.424;2024-02-14T16:24:02;12.64;92.81
84090;SHT35;74178;52.136;5.424;2024-02-14T16:26:34;12.64;92.77
84090;SHT35;74178;52.136;5.424;2024-02-14T16:29:04;12.64;92.91
84090;SHT35;74178;52.136;5.424;2024-02-14T16:31:41;12.64;92.83
84090;SHT35;74178;52.136;5.424;2024-02-14T16:34:15;12.63;92.71
84090;SHT35;74178;52.136;5.424;2024-02-14T16:36:45;12.63;92.76
84090;SHT35;74178;52.136;5.424;2024-02-14T16:39:16;12.61;92.89
84090;SHT35;74178;52.136;5.424;2024-02-14T16:42:07;12.61;92.83
84090;SHT35;74178;52.136;5.424;2024-02-14T16:44:39;12.60;92.66
84090;SHT35;74178;52.136;5.424;2024-02-14T16:47:09;12.60;92.84
84090;SHT35;74178;52.136;5.424;2024-02-14T16:49:41;12.59;93.02